sensor_id;sensor_type;location;lat;lon;timestamp;temperature;humidity
15288;DHT22;7745;48.708;9.026;2022-08-14T00:01:52;16.90;99.90
15288;DHT22;7745;48.708;9.026;2022-08-14T00:04:19;16.80;99.90
15288;DHT22;7745;48.708;9.026;2022-08-14T00:06:46;16.90;99.90
15288;DHT22;7745;48.708;9.026;2022-08-14T00:09:13;16.80;99.90
15288;DHT22;7745;48.708;9.026;2022-08-14T00:11:40;16.70;99.90
15288;DHT22;7745;48.708;9.026;2022-08-14T00:14:08;16.70;99.90
15288;DHT22;7745;48.708;9.026;2022-08-14T00:16:35;16.80;99.90
15288;DHT22;7745;48.708;9.026;2022-08-14T00:19:03;16.70;99.90
15288;DHT22;7745;48.708;9.026;2022-08-14T00:21:30;16.70;99.90
15288;DHT22;7745;48.708;9.026;2022-08-14T00:23:57;16.60;99.90
15288;DHT22;7745;48.708;9.026;2022-08-14T00:26:24;16.60;99.90
15288;DHT22;7745;48.708;9.026;2022-08-14T00:28:52;16.50;99.90
15288;DHT22;7745;48.708;9.026;2022-08-14T00:31:21;16.40;99.90
15288;DHT22;7745;48.708;9.026;2022-08-14T00:33:48;16.40;99.90
15288;DHT22;7745;48.708;9.026;2022-08-14T00:36:15;16.40;99.90
15288;DHT22;7745;48.708;9.026;2022-08-14T00:38:42;16.40;99.90
15288;DHT22;7745;48.708;9.026;2022-08-14T00:41:09;16.40;99.90
15288;DHT22;7745;48.708;9.026;2022-08-14T00:43:36;16.30;99.90
15288;DHT22;7745;48.708;9.026;2022-08-14T00:46:05;16.30;99.90
15288;DHT22;7745;48.708;9.026;2022-08-14T00:48:34;16.30;99.90
15288;DHT22;7745;48.708;9.026;2022-08-14T00:51:01;16.30;99.90
15288;DHT22;7745;48.708;9.026;2022-08-14T00:53:28;16.30;99.90
15288;DHT22;7745;48.708;9.026;2022-08-14T00:55:56;16.30;99.90
15288;DHT22;7745;48.708;9.026;2022-08-14T00:58:23;16.30;99.90
15288;DHT22;7745;48.708;9.026;2022-08-14T01:00:57;16.30;99.90
15288;DHT22;7745;48.708;9.026;2022-08-14T01:03:25;16.20;99.90
15288;DHT22;7745;48.708;9.026;2022-08-14T01:05:56;16.30;99.90
15288;DHT22;7745;48.708;9.026;2022-08-14T01:08:25;16.20;99.90
15288;DHT22;7745;48.708;9.026;2022-08-14T01:10:53;16.20;99.90
15288;DHT22;7745;48.708;9.026;2022-08-14T01:13:22;16.20;99.90
15288;DHT22;7745;48.708;9.026;2022-08-14T01:15:52;16.10;99.90
15288;DHT22;7745;48.708;9.026;2022-08-14T01:18:20;16.10;99.90
15288;DHT22;7745;48.708;9.026;2022-08-14T01:21:07;16.00;99.90
15288;DHT22;7745;48.708;9.026;2022-08-14T01:23:39;16.10;99.90
15288;DHT22;7745;48.708;9.026;2022-08-14T01:26:08;16.10;99.90
15288;DHT22;7745;48.708;9.026;2022-08-14T01:28:36;16.00;99.90
15288;DHT22;7745;48.708;9.026;2022-08-14T01:31:06;16.00;99.90
15288;DHT22;7745;48.708;9.026;2022-08-14T01:33:35;15.70;99.90
15288;DHT22;7745;48.708;9.026;2022-08-14T01:36:06;16.00;99.90
15288;DHT22;7745;48.708;9.026;2022-08-14T01:38:34;15.90;99.90
15288;DHT22;7745;48.708;9.026;2022-08-14T01:41:06;15.90;99.90
15288;DHT22;7745;48.708;9.026;2022-08-14T01:43:43;15.80;99.90
15288;DHT22;7745;48.708;9.026;2022-08-14T01:46:10;15.80;99.90
15288;DHT22;7745;48.708;9.026;2022-08-14T01:48:38;15.90;99.90
15288;DHT22;7745;48.708;9.026;2022-08-14T01:51:09;15.80;99.90
15288;DHT22;7745;48.708;9.026;2022-08-14T01:53:39;15.80;99.90
15288;DHT22;7745;48.708;9.026;2022-08-14T01:56:08;15.70;99.90
15288;DHT22;7745;48.708;9.026;2022-08-14T01:58:35;15.70;99.90
15288;DHT22;7745;48.708;9.026;2022-08-14T02:01:03;15.70;99.90
15288;DHT22;7745;48.708;9.026;2022-08-14T02:03:31;15.60;99.90
15288;DHT22;7745;48.708;9.026;2022-08-14T02:06:01;15.60;99.90
15288;DHT22;7745;48.708;9.026;2022-08-14T02:08:29;15.50;99.90
15288;DHT22;7745;48.708;9.026;2022-08-14T02:10:57;15.60;99.90
15288;DHT22;7745;48.708;9.026;2022-08-14T02:13:46;15.50;99.90
15288;DHT22;7745;48.708;9.026;2022-08-14T02:16:16;15.40;99.90
15288;DHT22;7745;48.708;9.026;2022-08-14T02:18:43;15.50;99.90
15288;DHT22;7745;48.708;9.026;2022-08-14T02:21:11;15.60;99.90
15288;DHT22;7745;48.708;9.026;2022-08-14T02:23:43;15.50;99.90
15288;DHT22;7745;48.708;9.026;2022-08-14T02:26:16;15.50;99.90
15288;DHT22;7745;48.708;9.026;2022-08-14T02:28:46;15.50;99.90
15288;DHT22;7745;48.708;9.026;2022-08-14T02:31:14;15.50;99.90
15288;DHT22;7745;48.708;9.026;2022-08-14T02:33:41;15.40;99.90
15288;DHT22;7745;48.708;9.026;2022-08-14T02:36:10;15.30;99.90
15288;DHT22;7745;48.708;9.026;2022-08-14T02:38:38;15.30;99.90
15288;DHT22;7745;48.708;9.026;2022-08-14T02:41:08;15.30;99.90
15288;DHT22;7745;48.708;9.026;2022-08-14T02:43:36;15.20;99.90
15288;DHT22;7745;48.708;9.026;2022-08-14T02:46:07;15.20;99.90
15288;DHT22;7745;48.708;9.026;2022-08-14T02:48:36;15.10;99.90
15288;DHT22;7745;48.708;9.026;2022-08-14T02:51:06;15.10;99.90
15288;DHT22;7745;48.708;9.026;2022-08-14T02:53:33;15.10;99.90
15288;DHT22;7745;48.708;9.026;2022-08-14T02:56:01;15.10;99.90
15288;DHT22;7745;48.708;9.026;2022-08-14T02:58:29;15.10;99.90
15288;DHT22;7745;48.708;9.026;2022-08-14T03:00:56;15.00;99.90
15288;DHT22;7745;48.708;9.026;2022-08-14T03:03:25;15.00;99.90
15288;DHT22;7745;48.708;9.026;2022-08-14T03:05:52;15.10;99.90
15288;DHT22;7745;48.708;9.026;2022-08-14T03:08:20;15.00;99.90
15288;DHT22;7745;48.708;9.026;2022-08-14T03:10:47;14.90;99.90
15288;DHT22;7745;48.708;9.026;2022-08-14T03:13:14;14.80;99.90
15288;DHT22;7745;48.708;9.026;2022-08-14T03:15:41;14.80;99.90
15288;DHT22;7745;48.708;9.026;2022-08-14T03:18:12;14.80;99.90
15288;DHT22;7745;48.708;9.026;2022-08-14T03:20:41;14.90;99.90
15288;DHT22;7745;48.708;9.026;2022-08-14T03:23:08;14.70;99.90
15288;DHT22;7745;48.708;9.026;2022-08-14T03:25:35;14.80;99.90
15288;DHT22;7745;48.708;9.026;2022-08-14T03:28:03;14.80;99.90
15288;DHT22;7745;48.708;9.026;2022-08-14T03:30:31;14.80;99.90
15288;DHT22;7745;48.708;9.026;2022-08-14T03:32:59;14.70;99.90
15288;DHT22;7745;48.708;9.026;2022-08-14T03:35:26;14.80;99.90
15288;DHT22;7745;48.708;9.026;2022-08-14T03:38:03;14.70;99.90
15288;DHT22;7745;48.708;9.026;2022-08-14T03:40:33;14.80;99.90
15288;DHT22;7745;48.708;9.026;2022-08-14T03:43:02;14.70;99.90
15288;DHT22;7745;48.708;9.026;2022-08-14T03:45:30;14.70;99.90
15288;DHT22;7745;48.708;9.026;2022-08-14T03:47:57;14.70;99.90
15288;DHT22;7745;48.708;9.026;2022-08-14T03:50:25;14.60;99.90
15288;DHT22;7745;48.708;9.026;2022-08-14T03:52:53;14.50;99.90
15288;DHT22;7745;48.708;9.026;2022-08-14T03:55:21;14.50;99.90
15288;DHT22;7745;48.708;9.026;2022-08-14T03:57:48;14.60;99.90
15288;DHT22;7745;48.708;9.026;2022-08-14T04:00:15;14.60;99.90
15288;DHT22;7745;48.708;9.026;2022-08-14T04:02:42;14.50;99.90
15288;DHT22;7745;48.708;9.026;2022-08-14T04:05:09;14.60;99.90
15288;DHT22;7745;48.708;9.026;2022-08-14T04:07:37;14.50;99.90
15288;DHT22;7745;48.708;9.026;2022-08-14T04:10:05;14.50;99.90
15288;DHT22;7745;48.708;9.026;2022-08-14T04:12:34;14.40;99.90
15288;DHT22;7745;48.708;9.026;2022-08-14T04:15:03;14.40;99.90
15288;DHT22;7745;48.708;9.026;2022-08-14T04:17:31;14.40;99.90
15288;DHT22;7745;48.708;9.026;2022-08-14T04:19:59;14.40;99.90
15288;DHT22;7745;48.708;9.026;2022-08-14T04:22:28;14.40;99.90
15288;DHT22;7745;48.708;9.026;2022-08-14T04:24:55;14.40;99.90
15288;DHT22;7745;48.708;9.026;2022-08-14T04:27:23;14.30;99.90
15288;DHT22;7745;48.708;9.026;2022-08-14T04:29:51;14.40;99.90
15288;DHT22;7745;48.708;9.026;2022-08-14T04:32:19;14.40;99.90
15288;DHT22;7745;48.708;9.026;2022-08-14T04:34:47;14.30;99.90
15288;DHT22;7745;48.708;9.026;2022-08-14T04:37:14;14.30;99.90
15288;DHT22;7745;48.708;9.026;2022-08-14T04:39:58;14.30;99.90
15288;DHT22;7745;48.708;9.026;2022-08-14T04:42:45;14.30;99.90
15288;DHT22;7745;48.708;9.026;2022-08-14T04:45:45;14.40;99.90
15288;DHT22;7745;48.708;9.026;2022-08-14T04:48:14;14.50;99.90
15288;DHT22;7745;48.708;9.026;2022-08-14T04:50:42;14.50;99.90
15288;DHT22;7745;48.708;9.026;2022-08-14T04:53:10;14.50;99.90
15288;DHT22;7745;48.708;9.026;2022-08-14T04:55:40;14.60;99.90
15288;DHT22;7745;48.708;9.026;2022-08-14T04:58:07;14.60;99.90
15288;DHT22;7745;48.708;9.026;2022-08-14T05:00:34;14.60;99.90
15288;DHT22;7745;48.708;9.026;2022-08-14T05:03:03;14.70;99.90
15288;DHT22;7745;48.708;9.026;2022-08-14T05:05:31;14.80;99.90
15288;DHT22;7745;48.708;9.026;2022-08-14T05:08:06;14.80;99.90
15288;DHT22;7745;48.708;9.026;2022-08-14T05:10:38;14.90;99.90
15288;DHT22;7745;48.708;9.026;2022-08-14T05:13:06;15.10;99.90
15288;DHT22;7745;48.708;9.026;2022-08-14T05:15:34;15.20;99.90
15288;DHT22;7745;48.708;9.026;2022-08-14T05:18:07;15.30;99.90
15288;DHT22;7745;48.708;9.026;2022-08-14T05:20:37;15.50;99.90
15288;DHT22;7745;48.708;9.026;2022-08-14T05:23:04;15.60;99.90
15288;DHT22;7745;48.708;9.026;2022-08-14T05:25:32;15.70;99.90
15288;DHT22;7745;48.708;9.026;2022-08-14T05:28:06;15.90;99.90
15288;DHT22;7745;48.708;9.026;2022-08-14T05:30:34;15.90;99.90
15288;DHT22;7745;48.708;9.026;2022-08-14T05:33:01;15.90;99.90
15288;DHT22;7745;48.708;9.026;2022-08-14T05:35:29;15.90;99.90
15288;DHT22;7745;48.708;9.026;2022-08-14T05:37:57;16.10;99.90
15288;DHT22;7745;48.708;9.026;2022-08-14T05:40:24;16.10;99.90
15288;DHT22;7745;48.708;9.026;2022-08-14T05:42:53;16.20;99.90
15288;DHT22;7745;48.708;9.026;2022-08-14T05:45:20;16.30;99.90
15288;DHT22;7745;48.708;9.026;2022-08-14T05:47:47;16.40;99.90
15288;DHT22;7745;48.708;9.026;2022-08-14T05:50:14;16.40;99.90
15288;DHT22;7745;48.708;9.026;2022-08-14T05:52:45;16.60;99.90
15288;DHT22;7745;48.708;9.026;2022-08-14T05:55:13;16.60;99.90
15288;DHT22;7745;48.708;9.026;2022-08-14T05:57:48;16.60;99.90
15288;DHT22;7745;48.708;9.026;2022-08-14T06:00:17;16.70;99.90
15288;DHT22;7745;48.708;9.026;2022-08-14T06:02:46;16.90;99.90
15288;DHT22;7745;48.708;9.026;2022-08-14T06:05:13;16.90;99.90
15288;DHT22;7745;48.708;9.026;2022-08-14T06:07:40;17.10;99.90
15288;DHT22;7745;48.708;9.026;2022-08-14T06:10:11;17.10;99.90
15288;DHT22;7745;48.708;9.026;2022-08-14T06:12:38;17.30;99.90
15288;DHT22;7745;48.708;9.026;2022-08-14T06:15:06;17.40;99.90
15288;DHT22;7745;48.708;9.026;2022-08-14T06:17:42;17.50;99.90
15288;DHT22;7745;48.708;9.026;2022-08-14T06:20:11;17.60;99.90
15288;DHT22;7745;48.708;9.026;2022-08-14T06:22:39;17.70;99.90
15288;DHT22;7745;48.708;9.026;2022-08-14T06:25:09;17.90;99.90
15288;DHT22;7745;48.708;9.026;2022-08-14T06:27:36;18.00;99.90
15288;DHT22;7745;48.708;9.026;2022-08-14T06:30:11;18.20;99.90
15288;DHT22;7745;48.708;9.026;2022-08-14T06:32:38;18.40;99.90
15288;DHT22;7745;48.708;9.026;2022-08-14T06:35:07;18.60;99.90
15288;DHT22;7745;48.708;9.026;2022-08-14T06:37:41;18.70;99.90
15288;DHT22;7745;48.708;9.026;2022-08-14T06:40:11;18.90;99.90
15288;DHT22;7745;48.708;9.026;2022-08-14T06:42:39;19.00;99.90
15288;DHT22;7745;48.708;9.026;2022-08-14T06:45:07;19.20;99.90
15288;DHT22;7745;48.708;9.026;2022-08-14T06:47:35;19.20;99.90
15288;DHT22;7745;48.708;9.026;2022-08-14T06:50:03;19.30;99.90
15288;DHT22;7745;48.708;9.026;2022-08-14T06:52:30;19.60;99.90
15288;DHT22;7745;48.708;9.026;2022-08-14T06:54:57;19.70;99.90
15288;DHT22;7745;48.708;9.026;2022-08-14T06:57:34;19.90;99.90
15288;DHT22;7745;48.708;9.026;2022-08-14T07:00:03;20.10;99.90
15288;DHT22;7745;48.708;9.026;2022-08-14T07:02:32;20.30;99.90
15288;DHT22;7745;48.708;9.026;2022-08-14T07:05:16;20.50;99.90
15288;DHT22;7745;48.708;9.026;2022-08-14T07:08:01;20.60;99.90
15288;DHT22;7745;48.708;9.026;2022-08-14T07:10:29;20.90;99.90
15288;DHT22;7745;48.708;9.026;2022-08-14T07:12:57;21.00;99.90
15288;DHT22;7745;48.708;9.026;2022-08-14T07:15:24;21.20;99.90
15288;DHT22;7745;48.708;9.026;2022-08-14T07:17:51;21.40;99.90
15288;DHT22;7745;48.708;9.026;2022-08-14T07:20:18;21.50;99.90
15288;DHT22;7745;48.708;9.026;2022-08-14T07:22:46;21.70;99.90
15288;DHT22;7745;48.708;9.026;2022-08-14T07:25:13;21.80;99.90
15288;DHT22;7745;48.708;9.026;2022-08-14T07:27:40;21.90;99.90
15288;DHT22;7745;48.708;9.026;2022-08-14T07:30:10;22.00;99.90
15288;DHT22;7745;48.708;9.026;2022-08-14T07:32:37;22.10;99.90
15288;DHT22;7745;48.708;9.026;2022-08-14T07:35:07;22.30;99.90
15288;DHT22;7745;48.708;9.026;2022-08-14T07:37:39;22.50;99.90
15288;DHT22;7745;48.708;9.026;2022-08-14T07:40:07;22.60;99.90
15288;DHT22;7745;48.708;9.026;2022-08-14T07:42:34;22.70;99.90
15288;DHT22;7745;48.708;9.026;2022-08-14T07:45:01;22.80;99.90
15288;DHT22;7745;48.708;9.026;2022-08-14T07:47:30;22.80;99.90
15288;DHT22;7745;48.708;9.026;2022-08-14T07:50:00;22.90;99.90
15288;DHT22;7745;48.708;9.026;2022-08-14T07:52:29;23.10;99.90
15288;DHT22;7745;48.708;9.026;2022-08-14T07:54:56;23.20;99.90
15288;DHT22;7745;48.708;9.026;2022-08-14T07:57:23;23.30;99.90
15288;DHT22;7745;48.708;9.026;2022-08-14T07:59:50;23.40;99.90
15288;DHT22;7745;48.708;9.026;2022-08-14T08:02:18;23.60;99.90
15288;DHT22;7745;48.708;9.026;2022-08-14T08:04:49;23.70;99.90
15288;DHT22;7745;48.708;9.026;2022-08-14T08:07:16;23.70;99.90
15288;DHT22;7745;48.708;9.026;2022-08-14T08:09:48;23.70;99.90
15288;DHT22;7745;48.708;9.026;2022-08-14T08:12:19;23.80;99.90
15288;DHT22;7745;48.708;9.026;2022-08-14T08:14:47;24.00;99.90
15288;DHT22;7745;48.708;9.026;2022-08-14T08:17:16;24.10;99.90
15288;DHT22;7745;48.708;9.026;2022-08-14T08:19:46;24.20;99.90
15288;DHT22;7745;48.708;9.026;2022-08-14T08:22:13;24.30;99.90
15288;DHT22;7745;48.708;9.026;2022-08-14T08:24:40;24.40;99.90
15288;DHT22;7745;48.708;9.026;2022-08-14T08:27:14;24.50;99.90
15288;DHT22;7745;48.708;9.026;2022-08-14T08:29:41;24.60;99.90
15288;DHT22;7745;48.708;9.026;2022-08-14T08:32:08;24.70;99.90
15288;DHT22;7745;48.708;9.026;2022-08-14T08:34:42;24.60;99.90
15288;DHT22;7745;48.708;9.026;2022-08-14T08:37:13;24.80;99.90
15288;DHT22;7745;48.708;9.026;2022-08-14T08:39:43;24.80;99.90
15288;DHT22;7745;48.708;9.026;2022-08-14T08:42:10;24.80;99.90
15288;DHT22;7745;48.708;9.026;2022-08-14T08:44:37;24.70;99.90
15288;DHT22;7745;48.708;9.026;2022-08-14T08:47:04;24.80;99.90
15288;DHT22;7745;48.708;9.026;2022-08-14T08:49:36;24.80;99.90
15288;DHT22;7745;48.708;9.026;2022-08-14T08:52:07;24.80;99.90
15288;DHT22;7745;48.708;9.026;2022-08-14T08:54:35;24.80;99.90
15288;DHT22;7745;48.708;9.026;2022-08-14T08:57:09;24.70;99.90
15288;DHT22;7745;48.708;9.026;2022-08-14T08:59:39;24.70;99.90
15288;DHT22;7745;48.708;9.026;2022-08-14T09:02:08;24.60;99.90
15288;DHT22;7745;48.708;9.026;2022-08-14T09:04:36;24.80;99.90
15288;DHT22;7745;48.708;9.026;2022-08-14T09:07:04;25.00;99.90
15288;DHT22;7745;48.708;9.026;2022-08-14T09:09:32;25.00;99.90
15288;DHT22;7745;48.708;9.026;2022-08-14T09:12:01;25.20;99.90
15288;DHT22;7745;48.708;9.026;2022-08-14T09:14:31;25.40;99.90
15288;DHT22;7745;48.708;9.026;2022-08-14T09:17:00;25.30;99.90
15288;DHT22;7745;48.708;9.026;2022-08-14T09:19:28;25.30;99.90
15288;DHT22;7745;48.708;9.026;2022-08-14T09:21:55;25.30;99.90
15288;DHT22;7745;48.708;9.026;2022-08-14T09:24:22;25.20;99.90
15288;DHT22;7745;48.708;9.026;2022-08-14T09:26:49;25.30;99.90
15288;DHT22;7745;48.708;9.026;2022-08-14T09:29:18;25.40;99.90
15288;DHT22;7745;48.708;9.026;2022-08-14T09:31:48;25.40;99.90
15288;DHT22;7745;48.708;9.026;2022-08-14T09:34:21;25.50;99.90
15288;DHT22;7745;48.708;9.026;2022-08-14T09:37:28;25.80;99.90
15288;DHT22;7745;48.708;9.026;2022-08-14T09:40:04;26.00;99.90
15288;DHT22;7745;48.708;9.026;2022-08-14T09:42:45;26.20;99.90
15288;DHT22;7745;48.708;9.026;2022-08-14T09:45:16;26.30;99.80
15288;DHT22;7745;48.708;9.026;2022-08-14T09:47:47;26.30;99.70
15288;DHT22;7745;48.708;9.026;2022-08-14T09:50:15;26.30;99.60
15288;DHT22;7745;48.708;9.026;2022-08-14T09:52:49;26.20;99.90
15288;DHT22;7745;48.708;9.026;2022-08-14T09:55:17;26.10;99.60
15288;DHT22;7745;48.708;9.026;2022-08-14T09:57:44;26.10;99.90
15288;DHT22;7745;48.708;9.026;2022-08-14T10:00:13;26.30;99.90
15288;DHT22;7745;48.708;9.026;2022-08-14T10:02:52;26.40;99.90
15288;DHT22;7745;48.708;9.026;2022-08-14T10:05:30;26.50;99.50
15288;DHT22;7745;48.708;9.026;2022-08-14T10:07:58;26.60;99.60
15288;DHT22;7745;48.708;9.026;2022-08-14T10:10:32;26.60;99.10
15288;DHT22;7745;48.708;9.026;2022-08-14T10:13:00;26.50;99.60
15288;DHT22;7745;48.708;9.026;2022-08-14T10:15:28;26.40;99.30
15288;DHT22;7745;48.708;9.026;2022-08-14T10:18:06;26.40;99.00
15288;DHT22;7745;48.708;9.026;2022-08-14T10:20:35;26.70;99.20
15288;DHT22;7745;48.708;9.026;2022-08-14T10:23:13;26.60;98.90
15288;DHT22;7745;48.708;9.026;2022-08-14T10:25:42;26.60;99.00
15288;DHT22;7745;48.708;9.026;2022-08-14T10:28:12;26.60;98.90
15288;DHT22;7745;48.708;9.026;2022-08-14T10:30:48;26.70;99.00
15288;DHT22;7745;48.708;9.026;2022-08-14T10:33:27;26.90;98.10
15288;DHT22;7745;48.708;9.026;2022-08-14T10:35:55;27.20;98.30
15288;DHT22;7745;48.708;9.026;2022-08-14T10:38:29;27.00;98.40
15288;DHT22;7745;48.708;9.026;2022-08-14T10:41:08;26.90;98.10
15288;DHT22;7745;48.708;9.026;2022-08-14T10:43:37;26.90;98.40
15288;DHT22;7745;48.708;9.026;2022-08-14T10:46:12;26.90;98.80
15288;DHT22;7745;48.708;9.026;2022-08-14T10:48:40;26.80;98.90
15288;DHT22;7745;48.708;9.026;2022-08-14T10:51:08;27.00;99.20
15288;DHT22;7745;48.708;9.026;2022-08-14T10:53:36;27.00;99.20
15288;DHT22;7745;48.708;9.026;2022-08-14T10:56:08;27.30;99.30
15288;DHT22;7745;48.708;9.026;2022-08-14T10:58:35;27.40;97.40
15288;DHT22;7745;48.708;9.026;2022-08-14T11:01:02;27.30;94.90
15288;DHT22;7745;48.708;9.026;2022-08-14T11:03:37;27.30;95.00
15288;DHT22;7745;48.708;9.026;2022-08-14T11:06:14;27.40;93.90
15288;DHT22;7745;48.708;9.026;2022-08-14T11:08:43;27.30;94.20
15288;DHT22;7745;48.708;9.026;2022-08-14T11:11:10;27.20;94.40
15288;DHT22;7745;48.708;9.026;2022-08-14T11:13:40;27.40;94.60
15288;DHT22;7745;48.708;9.026;2022-08-14T11:16:12;27.60;94.40
15288;DHT22;7745;48.708;9.026;2022-08-14T11:18:44;27.70;94.30
15288;DHT22;7745;48.708;9.026;2022-08-14T11:21:16;27.70;94.80
15288;DHT22;7745;48.708;9.026;2022-08-14T11:23:48;27.50;94.70
15288;DHT22;7745;48.708;9.026;2022-08-14T11:26:17;27.50;94.70
15288;DHT22;7745;48.708;9.026;2022-08-14T11:28:46;27.50;94.70
15288;DHT22;7745;48.708;9.026;2022-08-14T11:31:13;27.70;94.50
15288;DHT22;7745;48.708;9.026;2022-08-14T11:33:41;27.90;94.70
15288;DHT22;7745;48.708;9.026;2022-08-14T11:36:10;28.00;94.70
15288;DHT22;7745;48.708;9.026;2022-08-14T11:38:41;28.10;93.80
15288;DHT22;7745;48.708;9.026;2022-08-14T11:41:09;28.00;94.70
15288;DHT22;7745;48.708;9.026;2022-08-14T11:43:40;28.00;94.20
15288;DHT22;7745;48.708;9.026;2022-08-14T11:46:08;27.80;94.30
15288;DHT22;7745;48.708;9.026;2022-08-14T11:48:45;27.80;94.50
15288;DHT22;7745;48.708;9.026;2022-08-14T11:51:13;28.00;94.50
15288;DHT22;7745;48.708;9.026;2022-08-14T11:53:52;28.00;94.40
15288;DHT22;7745;48.708;9.026;2022-08-14T11:56:19;27.90;93.60
15288;DHT22;7745;48.708;9.026;2022-08-14T11:58:50;27.90;93.00
15288;DHT22;7745;48.708;9.026;2022-08-14T12:01:24;27.90;93.20
15288;DHT22;7745;48.708;9.026;2022-08-14T12:04:06;28.10;93.50
15288;DHT22;7745;48.708;9.026;2022-08-14T12:06:44;28.00;93.90
15288;DHT22;7745;48.708;9.026;2022-08-14T12:09:26;27.70;94.00
15288;DHT22;7745;48.708;9.026;2022-08-14T12:11:53;27.90;94.20
15288;DHT22;7745;48.708;9.026;2022-08-14T12:14:20;28.20;93.90
15288;DHT22;7745;48.708;9.026;2022-08-14T12:16:57;28.50;94.40
15288;DHT22;7745;48.708;9.026;2022-08-14T12:19:24;28.50;94.10
15288;DHT22;7745;48.708;9.026;2022-08-14T12:21:52;28.20;93.70
15288;DHT22;7745;48.708;9.026;2022-08-14T12:24:26;28.30;94.10
15288;DHT22;7745;48.708;9.026;2022-08-14T12:26:54;28.40;93.60
15288;DHT22;7745;48.708;9.026;2022-08-14T12:29:21;28.30;92.40
15288;DHT22;7745;48.708;9.026;2022-08-14T12:31:58;28.20;91.90
15288;DHT22;7745;48.708;9.026;2022-08-14T12:34:32;28.20;91.50
15288;DHT22;7745;48.708;9.026;2022-08-14T12:37:03;28.30;91.70
15288;DHT22;7745;48.708;9.026;2022-08-14T12:39:32;28.30;91.60
15288;DHT22;7745;48.708;9.026;2022-08-14T12:41:59;28.50;91.20
15288;DHT22;7745;48.708;9.026;2022-08-14T12:44:32;28.40;91.20
15288;DHT22;7745;48.708;9.026;2022-08-14T12:47:04;28.30;90.80
15288;DHT22;7745;48.708;9.026;2022-08-14T12:49:32;28.20;90.40
15288;DHT22;7745;48.708;9.026;2022-08-14T12:52:00;28.20;90.70
15288;DHT22;7745;48.708;9.026;2022-08-14T12:54:27;28.00;91.20
15288;DHT22;7745;48.708;9.026;2022-08-14T12:57:07;27.90;90.80
15288;DHT22;7745;48.708;9.026;2022-08-14T12:59:35;28.00;90.90
15288;DHT22;7745;48.708;9.026;2022-08-14T13:02:03;27.90;91.20
15288;DHT22;7745;48.708;9.026;2022-08-14T13:04:30;28.00;91.30
15288;DHT22;7745;48.708;9.026;2022-08-14T13:07:00;28.20;90.90
15288;DHT22;7745;48.708;9.026;2022-08-14T13:09:34;28.40;90.30
15288;DHT22;7745;48.708;9.026;2022-08-14T13:12:03;28.60;89.30
15288;DHT22;7745;48.708;9.026;2022-08-14T13:14:32;28.60;89.20
15288;DHT22;7745;48.708;9.026;2022-08-14T13:17:02;28.80;88.50
15288;DHT22;7745;48.708;9.026;2022-08-14T13:19:29;28.70;88.60
15288;DHT22;7745;48.708;9.026;2022-08-14T13:21:57;28.70;90.20
15288;DHT22;7745;48.708;9.026;2022-08-14T13:24:25;28.70;90.60
15288;DHT22;7745;48.708;9.026;2022-08-14T13:26:53;28.70;89.30
15288;DHT22;7745;48.708;9.026;2022-08-14T13:29:25;28.60;88.80
15288;DHT22;7745;48.708;9.026;2022-08-14T13:31:55;28.50;90.00
15288;DHT22;7745;48.708;9.026;2022-08-14T13:34:27;28.50;90.00
15288;DHT22;7745;48.708;9.026;2022-08-14T13:37:01;28.80;89.20
15288;DHT22;7745;48.708;9.026;2022-08-14T13:39:31;28.80;88.70
15288;DHT22;7745;48.708;9.026;2022-08-14T13:41:59;28.80;88.50
15288;DHT22;7745;48.708;9.026;2022-08-14T13:44:33;28.60;89.20
15288;DHT22;7745;48.708;9.026;2022-08-14T13:47:02;28.60;89.90
15288;DHT22;7745;48.708;9.026;2022-08-14T13:49:31;28.70;89.00
15288;DHT22;7745;48.708;9.026;2022-08-14T13:52:01;28.80;90.00
15288;DHT22;7745;48.708;9.026;2022-08-14T13:54:29;29.00;88.70
15288;DHT22;7745;48.708;9.026;2022-08-14T13:56:59;29.30;88.80
15288;DHT22;7745;48.708;9.026;2022-08-14T13:59:28;29.30;85.70
15288;DHT22;7745;48.708;9.026;2022-08-14T14:02:05;29.00;85.10
15288;DHT22;7745;48.708;9.026;2022-08-14T14:04:37;29.00;86.20
15288;DHT22;7745;48.708;9.026;2022-08-14T14:07:08;28.90;88.00
15288;DHT22;7745;48.708;9.026;2022-08-14T14:09:38;29.10;86.40
15288;DHT22;7745;48.708;9.026;2022-08-14T14:12:06;29.10;86.70
15288;DHT22;7745;48.708;9.026;2022-08-14T14:14:34;29.00;87.00
15288;DHT22;7745;48.708;9.026;2022-08-14T14:17:04;28.90;86.60
15288;DHT22;7745;48.708;9.026;2022-08-14T14:19:31;28.90;86.00
15288;DHT22;7745;48.708;9.026;2022-08-14T14:21:59;28.80;86.60
15288;DHT22;7745;48.708;9.026;2022-08-14T14:24:27;28.80;88.10
15288;DHT22;7745;48.708;9.026;2022-08-14T14:26:56;28.80;86.50
15288;DHT22;7745;48.708;9.026;2022-08-14T14:29:25;28.80;87.60
15288;DHT22;7745;48.708;9.026;2022-08-14T14:31:52;28.80;86.50
15288;DHT22;7745;48.708;9.026;2022-08-14T14:34:23;28.80;86.40
15288;DHT22;7745;48.708;9.026;2022-08-14T14:36:52;28.90;86.50
15288;DHT22;7745;48.708;9.026;2022-08-14T14:39:21;29.00;87.70
15288;DHT22;7745;48.708;9.026;2022-08-14T14:41:51;29.10;86.00
15288;DHT22;7745;48.708;9.026;2022-08-14T14:44:22;29.00;87.30
15288;DHT22;7745;48.708;9.026;2022-08-14T14:46:50;29.20;86.20
15288;DHT22;7745;48.708;9.026;2022-08-14T14:49:18;29.30;86.10
15288;DHT22;7745;48.708;9.026;2022-08-14T14:51:47;29.30;84.50
15288;DHT22;7745;48.708;9.026;2022-08-14T14:54:16;29.20;85.20
15288;DHT22;7745;48.708;9.026;2022-08-14T14:56:43;29.20;85.20
15288;DHT22;7745;48.708;9.026;2022-08-14T14:59:11;29.30;86.00
15288;DHT22;7745;48.708;9.026;2022-08-14T15:01:39;29.40;86.40
15288;DHT22;7745;48.708;9.026;2022-08-14T15:04:14;29.40;86.20
15288;DHT22;7745;48.708;9.026;2022-08-14T15:06:46;29.50;85.50
15288;DHT22;7745;48.708;9.026;2022-08-14T15:09:14;29.40;84.50
15288;DHT22;7745;48.708;9.026;2022-08-14T15:11:41;29.40;85.30
15288;DHT22;7745;48.708;9.026;2022-08-14T15:14:08;29.40;86.20
15288;DHT22;7745;48.708;9.026;2022-08-14T15:16:35;29.40;84.20
15288;DHT22;7745;48.708;9.026;2022-08-14T15:19:02;29.40;83.50
15288;DHT22;7745;48.708;9.026;2022-08-14T15:21:30;29.40;83.60
15288;DHT22;7745;48.708;9.026;2022-08-14T15:24:00;29.40;84.20
15288;DHT22;7745;48.708;9.026;2022-08-14T15:26:28;29.50;83.70
15288;DHT22;7745;48.708;9.026;2022-08-14T15:28:55;29.40;84.00
15288;DHT22;7745;48.708;9.026;2022-08-14T15:31:22;29.40;84.70
15288;DHT22;7745;48.708;9.026;2022-08-14T15:33:48;29.40;85.00
15288;DHT22;7745;48.708;9.026;2022-08-14T15:36:33;29.40;84.10
15288;DHT22;7745;48.708;9.026;2022-08-14T15:39:02;29.30;84.00
15288;DHT22;7745;48.708;9.026;2022-08-14T15:41:30;29.40;83.80
15288;DHT22;7745;48.708;9.026;2022-08-14T15:43:59;29.40;84.50
15288;DHT22;7745;48.708;9.026;2022-08-14T15:46:27;29.40;84.60
15288;DHT22;7745;48.708;9.026;2022-08-14T15:48:54;29.40;85.00
15288;DHT22;7745;48.708;9.026;2022-08-14T15:51:21;29.40;85.10
15288;DHT22;7745;48.708;9.026;2022-08-14T15:53:48;29.40;84.60
15288;DHT22;7745;48.708;9.026;2022-08-14T15:56:16;29.40;85.10
15288;DHT22;7745;48.708;9.026;2022-08-14T15:58:43;29.40;84.60
15288;DHT22;7745;48.708;9.026;2022-08-14T16:01:10;29.40;84.10